sensor_id;sensor_type;location;lat;lon;timestamp;temperature;humidity
28460;DHT22;32528;45.712;9.192;2023-07-24T00:01:00;23.70;94.30
28460;DHT22;32528;45.712;9.192;2023-07-24T00:03:02;23.70;94.40
28460;DHT22;32528;45.712;9.192;2023-07-24T00:05:03;23.60;94.50
28460;DHT22;32528;45.712;9.192;2023-07-24T00:07:03;23.60;94.60
28460;DHT22;32528;45.712;9.192;2023-07-24T00:09:04;23.50;95.20
28460;DHT22;32528;45.712;9.192;2023-07-24T00:11:08;23.50;94.70
28460;DHT22;32528;45.712;9.192;2023-07-24T00:13:09;23.50;94.90
28460;DHT22;32528;45.712;9.192;2023-07-24T00:15:10;23.40;94.80
28460;DHT22;32528;45.712;9.192;2023-07-24T00:17:10;23.50;94.90
28460;DHT22;32528;45.712;9.192;2023-07-24T00:19:11;23.50;94.90
28460;DHT22;32528;45.712;9.192;2023-07-24T00:21:12;23.60;94.90
28460;DHT22;32528;45.712;9.192;2023-07-24T00:23:13;23.50;95.40
28460;DHT22;32528;45.712;9.192;2023-07-24T00:25:14;23.50;94.80
28460;DHT22;32528;45.712;9.192;2023-07-24T00:27:15;23.50;94.80
28460;DHT22;32528;45.712;9.192;2023-07-24T00:29:16;23.60;94.70
28460;DHT22;32528;45.712;9.192;2023-07-24T00:31:17;23.60;94.60
28460;DHT22;32528;45.712;9.192;2023-07-24T00:33:18;23.60;94.50
28460;DHT22;32528;45.712;9.192;2023-07-24T00:35:19;23.70;94.60
28460;DHT22;32528;45.712;9.192;2023-07-24T00:37:19;23.80;94.60
28460;DHT22;32528;45.712;9.192;2023-07-24T00:39:21;23.70;94.50
28460;DHT22;32528;45.712;9.192;2023-07-24T00:41:21;23.70;94.70
28460;DHT22;32528;45.712;9.192;2023-07-24T00:43:22;23.60;94.70
28460;DHT22;32528;45.712;9.192;2023-07-24T00:45:23;23.50;95.20
28460;DHT22;32528;45.712;9.192;2023-07-24T00:47:26;23.50;94.90
28460;DHT22;32528;45.712;9.192;2023-07-24T00:49:27;23.40;95.00
28460;DHT22;32528;45.712;9.192;2023-07-24T00:51:28;23.30;95.00
28460;DHT22;32528;45.712;9.192;2023-07-24T00:53:29;23.30;95.00
28460;DHT22;32528;45.712;9.192;2023-07-24T00:55:30;23.30;95.10
28460;DHT22;32528;45.712;9.192;2023-07-24T00:57:32;23.30;95.10
28460;DHT22;32528;45.712;9.192;2023-07-24T00:59:33;23.50;95.20
28460;DHT22;32528;45.712;9.192;2023-07-24T01:01:35;23.40;95.10
28460;DHT22;32528;45.712;9.192;2023-07-24T01:03:37;23.30;95.10
28460;DHT22;32528;45.712;9.192;2023-07-24T01:05:38;23.30;95.20
28460;DHT22;32528;45.712;9.192;2023-07-24T01:07:40;23.20;95.20
28460;DHT22;32528;45.712;9.192;2023-07-24T01:09:41;23.20;95.40
28460;DHT22;32528;45.712;9.192;2023-07-24T01:11:59;23.20;95.50
28460;DHT22;32528;45.712;9.192;2023-07-24T01:14:16;23.10;96.30
28460;DHT22;32528;45.712;9.192;2023-07-24T01:16:20;23.10;95.60
28460;DHT22;32528;45.712;9.192;2023-07-24T01:18:24;23.20;95.60
28460;DHT22;32528;45.712;9.192;2023-07-24T01:20:26;23.20;95.70
28460;DHT22;32528;45.712;9.192;2023-07-24T01:24:47;23.00;95.70
28460;DHT22;32528;45.712;9.192;2023-07-24T01:26:49;23.00;95.90
28460;DHT22;32528;45.712;9.192;2023-07-24T01:28:50;23.00;95.70
28460;DHT22;32528;45.712;9.192;2023-07-24T01:30:53;23.00;95.60
28460;DHT22;32528;45.712;9.192;2023-07-24T01:32:54;23.00;95.70
28460;DHT22;32528;45.712;9.192;2023-07-24T01:34:55;23.00;95.70
28460;DHT22;32528;45.712;9.192;2023-07-24T01:36:56;23.00;95.70
28460;DHT22;32528;45.712;9.192;2023-07-24T01:38:57;23.00;95.80
28460;DHT22;32528;45.712;9.192;2023-07-24T01:40:58;22.90;95.70
28460;DHT22;32528;45.712;9.192;2023-07-24T01:42:59;23.00;95.80
28460;DHT22;32528;45.712;9.192;2023-07-24T01:45:02;23.00;95.70
28460;DHT22;32528;45.712;9.192;2023-07-24T01:47:03;23.00;95.70
28460;DHT22;32528;45.712;9.192;2023-07-24T01:49:04;23.00;95.70
28460;DHT22;32528;45.712;9.192;2023-07-24T01:51:05;23.00;95.70
28460;DHT22;32528;45.712;9.192;2023-07-24T01:53:06;23.00;95.70
28460;DHT22;32528;45.712;9.192;2023-07-24T01:55:07;23.10;95.80
28460;DHT22;32528;45.712;9.192;2023-07-24T01:57:07;23.10;95.90
28460;DHT22;32528;45.712;9.192;2023-07-24T01:59:08;23.10;95.90
28460;DHT22;32528;45.712;9.192;2023-07-24T02:01:10;23.10;96.20
28460;DHT22;32528;45.712;9.192;2023-07-24T02:03:13;23.10;95.90
28460;DHT22;32528;45.712;9.192;2023-07-24T02:05:14;23.10;95.90
28460;DHT22;32528;45.712;9.192;2023-07-24T02:07:16;23.10;95.90
28460;DHT22;32528;45.712;9.192;2023-07-24T02:09:20;23.10;95.80
28460;DHT22;32528;45.712;9.192;2023-07-24T02:11:21;23.10;95.80
28460;DHT22;32528;45.712;9.192;2023-07-24T02:13:21;23.30;96.00
28460;DHT22;32528;45.712;9.192;2023-07-24T02:15:24;23.30;95.80
28460;DHT22;32528;45.712;9.192;2023-07-24T02:17:24;23.30;95.90
28460;DHT22;32528;45.712;9.192;2023-07-24T02:19:25;23.30;95.80
28460;DHT22;32528;45.712;9.192;2023-07-24T02:21:25;23.20;95.80
28460;DHT22;32528;45.712;9.192;2023-07-24T02:23:29;23.20;95.80
28460;DHT22;32528;45.712;9.192;2023-07-24T02:25:30;23.20;95.80
28460;DHT22;32528;45.712;9.192;2023-07-24T02:27:31;23.10;95.90
28460;DHT22;32528;45.712;9.192;2023-07-24T02:29:34;23.10;95.90
28460;DHT22;32528;45.712;9.192;2023-07-24T02:31:36;23.10;95.80
28460;DHT22;32528;45.712;9.192;2023-07-24T02:33:36;23.10;95.80
28460;DHT22;32528;45.712;9.192;2023-07-24T02:35:41;23.00;95.90
28460;DHT22;32528;45.712;9.192;2023-07-24T02:37:42;23.10;96.20
28460;DHT22;32528;45.712;9.192;2023-07-24T02:39:45;23.10;96.10
28460;DHT22;32528;45.712;9.192;2023-07-24T02:41:49;23.00;96.10
28460;DHT22;32528;45.712;9.192;2023-07-24T02:43:51;23.00;96.20
28460;DHT22;32528;45.712;9.192;2023-07-24T02:45:53;23.00;96.10
28460;DHT22;32528;45.712;9.192;2023-07-24T02:47:54;23.00;96.10
28460;DHT22;32528;45.712;9.192;2023-07-24T02:49:54;23.10;96.20
28460;DHT22;32528;45.712;9.192;2023-07-24T02:51:55;23.00;96.10
28460;DHT22;32528;45.712;9.192;2023-07-24T02:53:56;23.00;96.00
28460;DHT22;32528;45.712;9.192;2023-07-24T02:55:56;23.10;96.10
28460;DHT22;32528;45.712;9.192;2023-07-24T02:57:57;23.00;96.10
28460;DHT22;32528;45.712;9.192;2023-07-24T02:59:58;23.00;96.10
28460;DHT22;32528;45.712;9.192;2023-07-24T03:01:59;23.00;96.10
28460;DHT22;32528;45.712;9.192;2023-07-24T03:03:59;22.90;96.00
28460;DHT22;32528;45.712;9.192;2023-07-24T03:06:01;23.00;96.00
28460;DHT22;32528;45.712;9.192;2023-07-24T03:08:02;23.00;96.00
28460;DHT22;32528;45.712;9.192;2023-07-24T03:10:04;23.00;96.00
28460;DHT22;32528;45.712;9.192;2023-07-24T03:12:05;23.10;96.10
28460;DHT22;32528;45.712;9.192;2023-07-24T03:14:06;23.20;96.20
28460;DHT22;32528;45.712;9.192;2023-07-24T03:16:07;23.30;96.30
28460;DHT22;32528;45.712;9.192;2023-07-24T03:18:08;23.40;96.20
28460;DHT22;32528;45.712;9.192;2023-07-24T03:20:13;23.40;96.20
28460;DHT22;32528;45.712;9.192;2023-07-24T03:22:14;23.40;95.90
28460;DHT22;32528;45.712;9.192;2023-07-24T03:24:15;23.40;95.80
28460;DHT22;32528;45.712;9.192;2023-07-24T03:26:15;23.40;95.70
28460;DHT22;32528;45.712;9.192;2023-07-24T03:28:16;23.50;95.60
28460;DHT22;32528;45.712;9.192;2023-07-24T03:30:17;23.50;95.40
28460;DHT22;32528;45.712;9.192;2023-07-24T03:32:18;23.50;95.40
28460;DHT22;32528;45.712;9.192;2023-07-24T03:34:19;23.60;95.40
28460;DHT22;32528;45.712;9.192;2023-07-24T03:36:20;23.60;95.40
28460;DHT22;32528;45.712;9.192;2023-07-24T03:38:20;23.60;95.30
28460;DHT22;32528;45.712;9.192;2023-07-24T03:40:21;23.70;95.20
28460;DHT22;32528;45.712;9.192;2023-07-24T03:42:30;23.70;95.60
28460;DHT22;32528;45.712;9.192;2023-07-24T03:44:31;23.80;95.10
28460;DHT22;32528;45.712;9.192;2023-07-24T03:46:32;23.80;95.10
28460;DHT22;32528;45.712;9.192;2023-07-24T03:48:33;23.90;95.00
28460;DHT22;32528;45.712;9.192;2023-07-24T03:50:35;23.90;95.00
28460;DHT22;32528;45.712;9.192;2023-07-24T03:52:35;24.00;95.00
28460;DHT22;32528;45.712;9.192;2023-07-24T03:54:36;24.00;95.00
28460;DHT22;32528;45.712;9.192;2023-07-24T03:56:37;24.00;94.90
28460;DHT22;32528;45.712;9.192;2023-07-24T03:58:38;24.00;94.90
28460;DHT22;32528;45.712;9.192;2023-07-24T04:00:41;24.10;94.90
28460;DHT22;32528;45.712;9.192;2023-07-24T04:02:43;24.10;94.90
28460;DHT22;32528;45.712;9.192;2023-07-24T04:04:43;24.10;94.80
28460;DHT22;32528;45.712;9.192;2023-07-24T04:06:45;24.20;95.00
28460;DHT22;32528;45.712;9.192;2023-07-24T04:08:46;24.10;94.90
28460;DHT22;32528;45.712;9.192;2023-07-24T04:10:47;24.20;94.90
28460;DHT22;32528;45.712;9.192;2023-07-24T04:12:47;24.30;94.80
28460;DHT22;32528;45.712;9.192;2023-07-24T04:14:48;24.40;94.50
28460;DHT22;32528;45.712;9.192;2023-07-24T04:16:49;24.50;94.40
28460;DHT22;32528;45.712;9.192;2023-07-24T04:18:50;24.50;94.30
28460;DHT22;32528;45.712;9.192;2023-07-24T04:20:50;24.40;94.40
28460;DHT22;32528;45.712;9.192;2023-07-24T04:22:51;24.40;94.60
28460;DHT22;32528;45.712;9.192;2023-07-24T04:24:52;24.50;94.50
28460;DHT22;32528;45.712;9.192;2023-07-24T04:26:52;24.60;94.30
28460;DHT22;32528;45.712;9.192;2023-07-24T04:28:53;24.70;94.20
28460;DHT22;32528;45.712;9.192;2023-07-24T04:30:54;24.90;94.10
28460;DHT22;32528;45.712;9.192;2023-07-24T04:32:54;25.00;93.70
28460;DHT22;32528;45.712;9.192;2023-07-24T04:34:55;25.20;93.60
28460;DHT22;32528;45.712;9.192;2023-07-24T04:36:56;25.30;93.40
28460;DHT22;32528;45.712;9.192;2023-07-24T04:38:56;25.40;93.30
28460;DHT22;32528;45.712;9.192;2023-07-24T04:41:00;25.40;93.20
28460;DHT22;32528;45.712;9.192;2023-07-24T04:43:01;25.40;93.10
28460;DHT22;32528;45.712;9.192;2023-07-24T04:45:02;25.40;93.10
28460;DHT22;32528;45.712;9.192;2023-07-24T04:47:03;25.40;93.20
28460;DHT22;32528;45.712;9.192;2023-07-24T04:49:04;25.30;93.40
28460;DHT22;32528;45.712;9.192;2023-07-24T04:51:04;25.20;93.50
28460;DHT22;32528;45.712;9.192;2023-07-24T04:53:05;25.10;93.50
28460;DHT22;32528;45.712;9.192;2023-07-24T04:55:06;25.10;93.50
28460;DHT22;32528;45.712;9.192;2023-07-24T04:57:06;25.10;93.60
28460;DHT22;32528;45.712;9.192;2023-07-24T04:59:07;25.00;94.10
28460;DHT22;32528;45.712;9.192;2023-07-24T05:01:07;24.80;94.70
28460;DHT22;32528;45.712;9.192;2023-07-24T05:03:09;24.60;94.90
28460;DHT22;32528;45.712;9.192;2023-07-24T05:05:11;24.40;95.80
28460;DHT22;32528;45.712;9.192;2023-07-24T05:07:12;24.30;96.00
28460;DHT22;32528;45.712;9.192;2023-07-24T05:09:12;24.30;96.10
28460;DHT22;32528;45.712;9.192;2023-07-24T05:11:13;24.20;95.90
28460;DHT22;32528;45.712;9.192;2023-07-24T05:13:14;24.20;95.40
28460;DHT22;32528;45.712;9.192;2023-07-24T05:15:14;24.10;95.50
28460;DHT22;32528;45.712;9.192;2023-07-24T05:17:17;24.00;95.60
28460;DHT22;32528;45.712;9.192;2023-07-24T05:19:18;24.00;95.50
28460;DHT22;32528;45.712;9.192;2023-07-24T05:21:19;24.10;95.60
28460;DHT22;32528;45.712;9.192;2023-07-24T05:23:19;24.10;95.50
28460;DHT22;32528;45.712;9.192;2023-07-24T05:25:20;24.10;95.60
28460;DHT22;32528;45.712;9.192;2023-07-24T05:27:21;24.10;95.50
28460;DHT22;32528;45.712;9.192;2023-07-24T05:29:21;24.20;95.80
28460;DHT22;32528;45.712;9.192;2023-07-24T05:31:22;24.30;96.50
28460;DHT22;32528;45.712;9.192;2023-07-24T05:33:23;24.30;96.50
28460;DHT22;32528;45.712;9.192;2023-07-24T05:35:23;24.30;96.10
28460;DHT22;32528;45.712;9.192;2023-07-24T05:37:24;24.30;95.90
28460;DHT22;32528;45.712;9.192;2023-07-24T05:39:24;24.30;95.80
28460;DHT22;32528;45.712;9.192;2023-07-24T05:41:25;24.20;95.80
28460;DHT22;32528;45.712;9.192;2023-07-24T05:43:26;24.20;96.00
28460;DHT22;32528;45.712;9.192;2023-07-24T05:45:27;24.30;95.60
28460;DHT22;32528;45.712;9.192;2023-07-24T05:47:27;24.40;95.70
28460;DHT22;32528;45.712;9.192;2023-07-24T05:49:28;24.50;95.50
28460;DHT22;32528;45.712;9.192;2023-07-24T05:51:28;24.60;95.70
28460;DHT22;32528;45.712;9.192;2023-07-24T05:53:29;24.60;95.80
28460;DHT22;32528;45.712;9.192;2023-07-24T05:55:30;24.70;95.10
28460;DHT22;32528;45.712;9.192;2023-07-24T05:57:30;24.80;94.60
28460;DHT22;32528;45.712;9.192;2023-07-24T05:59:31;25.00;94.40
28460;DHT22;32528;45.712;9.192;2023-07-24T06:01:32;25.20;94.30
28460;DHT22;32528;45.712;9.192;2023-07-24T06:03:33;25.30;94.00
28460;DHT22;32528;45.712;9.192;2023-07-24T06:05:33;25.40;94.00
28460;DHT22;32528;45.712;9.192;2023-07-24T06:07:34;25.60;93.80
28460;DHT22;32528;45.712;9.192;2023-07-24T06:09:34;25.80;93.50
28460;DHT22;32528;45.712;9.192;2023-07-24T06:11:35;26.00;92.90
28460;DHT22;32528;45.712;9.192;2023-07-24T06:13:36;26.20;92.80
28460;DHT22;32528;45.712;9.192;2023-07-24T06:15:36;26.40;92.70
28460;DHT22;32528;45.712;9.192;2023-07-24T06:17:37;26.30;91.90
28460;DHT22;32528;45.712;9.192;2023-07-24T06:19:37;26.10;92.20
28460;DHT22;32528;45.712;9.192;2023-07-24T06:21:38;25.80;92.70
28460;DHT22;32528;45.712;9.192;2023-07-24T06:23:38;25.60;92.40
28460;DHT22;32528;45.712;9.192;2023-07-24T06:25:39;25.50;92.40
28460;DHT22;32528;45.712;9.192;2023-07-24T06:27:39;25.40;93.30
28460;DHT22;32528;45.712;9.192;2023-07-24T06:29:40;25.50;93.80
28460;DHT22;32528;45.712;9.192;2023-07-24T06:31:41;25.40;94.40
28460;DHT22;32528;45.712;9.192;2023-07-24T06:33:41;25.30;94.60
28460;DHT22;32528;45.712;9.192;2023-07-24T06:35:42;25.30;94.60
28460;DHT22;32528;45.712;9.192;2023-07-24T06:37:43;25.40;94.60
28460;DHT22;32528;45.712;9.192;2023-07-24T06:39:43;25.40;93.60
28460;DHT22;32528;45.712;9.192;2023-07-24T06:41:44;25.50;94.10
28460;DHT22;32528;45.712;9.192;2023-07-24T06:43:44;25.60;94.40
28460;DHT22;32528;45.712;9.192;2023-07-24T06:45:45;25.60;94.50
28460;DHT22;32528;45.712;9.192;2023-07-24T06:47:46;25.60;94.00
28460;DHT22;32528;45.712;9.192;2023-07-24T06:49:46;25.60;94.30
28460;DHT22;32528;45.712;9.192;2023-07-24T06:51:47;25.80;94.30
28460;DHT22;32528;45.712;9.192;2023-07-24T06:53:48;25.90;94.10
28460;DHT22;32528;45.712;9.192;2023-07-24T06:55:48;26.00;93.70
28460;DHT22;32528;45.712;9.192;2023-07-24T06:57:49;26.10;93.70
28460;DHT22;32528;45.712;9.192;2023-07-24T06:59:50;26.20;93.30
28460;DHT22;32528;45.712;9.192;2023-07-24T07:01:50;26.20;93.20
28460;DHT22;32528;45.712;9.192;2023-07-24T07:03:51;26.30;93.30
28460;DHT22;32528;45.712;9.192;2023-07-24T07:05:57;26.30;92.80
28460;DHT22;32528;45.712;9.192;2023-07-24T07:07:58;26.30;92.40
28460;DHT22;32528;45.712;9.192;2023-07-24T07:09:59;26.00;92.70
28460;DHT22;32528;45.712;9.192;2023-07-24T07:11:59;26.00;92.80
28460;DHT22;32528;45.712;9.192;2023-07-24T07:14:00;26.00;93.40
28460;DHT22;32528;45.712;9.192;2023-07-24T07:16:00;26.00;93.50
28460;DHT22;32528;45.712;9.192;2023-07-24T07:18:01;26.10;93.60
28460;DHT22;32528;45.712;9.192;2023-07-24T07:20:02;26.10;93.70
28460;DHT22;32528;45.712;9.192;2023-07-24T07:22:03;25.90;93.80
28460;DHT22;32528;45.712;9.192;2023-07-24T07:24:04;25.60;93.80
28460;DHT22;32528;45.712;9.192;2023-07-24T07:26:04;25.40;94.40
28460;DHT22;32528;45.712;9.192;2023-07-24T07:28:05;25.20;95.10
28460;DHT22;32528;45.712;9.192;2023-07-24T07:30:06;25.10;95.60
28460;DHT22;32528;45.712;9.192;2023-07-24T07:32:07;25.10;95.90
28460;DHT22;32528;45.712;9.192;2023-07-24T07:34:08;25.10;94.90
28460;DHT22;32528;45.712;9.192;2023-07-24T07:36:09;25.20;95.40
28460;DHT22;32528;45.712;9.192;2023-07-24T07:38:10;25.30;95.70
28460;DHT22;32528;45.712;9.192;2023-07-24T07:40:10;25.30;95.90
28460;DHT22;32528;45.712;9.192;2023-07-24T07:42:11;25.20;96.30
28460;DHT22;32528;45.712;9.192;2023-07-24T07:44:12;24.70;97.30
28460;DHT22;32528;45.712;9.192;2023-07-24T07:46:15;24.40;98.00
28460;DHT22;32528;45.712;9.192;2023-07-24T07:48:16;24.30;98.20
28460;DHT22;32528;45.712;9.192;2023-07-24T07:50:16;24.10;98.30
28460;DHT22;32528;45.712;9.192;2023-07-24T07:52:17;24.00;98.80
28460;DHT22;32528;45.712;9.192;2023-07-24T07:54:18;23.90;99.50
28460;DHT22;32528;45.712;9.192;2023-07-24T07:56:19;23.70;99.40
28460;DHT22;32528;45.712;9.192;2023-07-24T07:58:19;23.60;99.50
28460;DHT22;32528;45.712;9.192;2023-07-24T08:00:20;23.70;99.00
28460;DHT22;32528;45.712;9.192;2023-07-24T08:02:20;23.80;99.40
28460;DHT22;32528;45.712;9.192;2023-07-24T08:04:21;24.00;99.30
28460;DHT22;32528;45.712;9.192;2023-07-24T08:06:21;24.00;99.30
28460;DHT22;32528;45.712;9.192;2023-07-24T08:08:22;23.80;99.40
28460;DHT22;32528;45.712;9.192;2023-07-24T08:10:23;23.50;99.50
28460;DHT22;32528;45.712;9.192;2023-07-24T08:12:23;23.40;99.90
28460;DHT22;32528;45.712;9.192;2023-07-24T08:14:24;23.20;99.90
28460;DHT22;32528;45.712;9.192;2023-07-24T08:16:25;23.10;99.90
28460;DHT22;32528;45.712;9.192;2023-07-24T08:18:26;23.00;99.90
28460;DHT22;32528;45.712;9.192;2023-07-24T08:20:26;23.10;99.90
28460;DHT22;32528;45.712;9.192;2023-07-24T08:22:27;23.10;99.90
28460;DHT22;32528;45.712;9.192;2023-07-24T08:24:28;23.30;99.90
28460;DHT22;32528;45.712;9.192;2023-07-24T08:26:28;23.70;99.90
28460;DHT22;32528;45.712;9.192;2023-07-24T08:28:29;23.90;99.90
28460;DHT22;32528;45.712;9.192;2023-07-24T08:30:30;24.10;99.90
28460;DHT22;32528;45.712;9.192;2023-07-24T08:32:32;24.30;99.60
28460;DHT22;32528;45.712;9.192;2023-07-24T08:34:32;24.30;99.40
28460;DHT22;32528;45.712;9.192;2023-07-24T08:36:33;24.30;99.50
28460;DHT22;32528;45.712;9.192;2023-07-24T08:38:34;24.20;99.00
28460;DHT22;32528;45.712;9.192;2023-07-24T08:40:35;24.10;99.30
28460;DHT22;32528;45.712;9.192;2023-07-24T08:42:38;23.90;99.40
28460;DHT22;32528;45.712;9.192;2023-07-24T08:44:39;24.10;99.90
28460;DHT22;32528;45.712;9.192;2023-07-24T08:46:40;24.20;99.90
28460;DHT22;32528;45.712;9.192;2023-07-24T08:48:42;24.40;99.30
28460;DHT22;32528;45.712;9.192;2023-07-24T08:50:42;24.60;98.90
28460;DHT22;32528;45.712;9.192;2023-07-24T08:52:43;24.70;99.10
28460;DHT22;32528;45.712;9.192;2023-07-24T08:54:45;24.80;99.40
28460;DHT22;32528;45.712;9.192;2023-07-24T08:56:46;24.70;98.70
28460;DHT22;32528;45.712;9.192;2023-07-24T08:58:50;24.70;99.20
28460;DHT22;32528;45.712;9.192;2023-07-24T09:00:51;24.80;99.10
28460;DHT22;32528;45.712;9.192;2023-07-24T09:02:51;25.00;98.90
28460;DHT22;32528;45.712;9.192;2023-07-24T09:04:52;25.20;97.70
28460;DHT22;32528;45.712;9.192;2023-07-24T09:06:53;25.30;98.20
28460;DHT22;32528;45.712;9.192;2023-07-24T09:08:53;25.30;98.00
28460;DHT22;32528;45.712;9.192;2023-07-24T09:10:54;25.40;97.70
28460;DHT22;32528;45.712;9.192;2023-07-24T09:12:55;25.40;97.80
28460;DHT22;32528;45.712;9.192;2023-07-24T09:15:05;25.50;97.70
28460;DHT22;32528;45.712;9.192;2023-07-24T09:17:06;25.60;96.70
28460;DHT22;32528;45.712;9.192;2023-07-24T09:19:15;25.60;97.00
28460;DHT22;32528;45.712;9.192;2023-07-24T09:21:26;25.90;96.90
28460;DHT22;32528;45.712;9.192;2023-07-24T09:23:27;26.10;96.00
28460;DHT22;32528;45.712;9.192;2023-07-24T09:25:31;26.20;95.60
28460;DHT22;32528;45.712;9.192;2023-07-24T09:27:31;26.10;95.30
28460;DHT22;32528;45.712;9.192;2023-07-24T09:29:32;26.10;95.30
28460;DHT22;32528;45.712;9.192;2023-07-24T09:31:34;26.00;95.80
28460;DHT22;32528;45.712;9.192;2023-07-24T09:35:35;26.00;96.40
28460;DHT22;32528;45.712;9.192;2023-07-24T09:37:36;26.00;96.70
28460;DHT22;32528;45.712;9.192;2023-07-24T09:39:36;26.20;96.80
28460;DHT22;32528;45.712;9.192;2023-07-24T09:41:38;26.20;96.60
28460;DHT22;32528;45.712;9.192;2023-07-24T09:43:38;26.20;96.30
28460;DHT22;32528;45.712;9.192;2023-07-24T09:45:39;26.40;96.80
28460;DHT22;32528;45.712;9.192;2023-07-24T09:47:40;26.50;96.50
28460;DHT22;32528;45.712;9.192;2023-07-24T09:49:41;26.30;96.40
28460;DHT22;32528;45.712;9.192;2023-07-24T09:51:47;26.40;96.60
28460;DHT22;32528;45.712;9.192;2023-07-24T09:54:12;26.20;96.90
28460;DHT22;32528;45.712;9.192;2023-07-24T09:56:15;25.80;96.50
28460;DHT22;32528;45.712;9.192;2023-07-24T09:58:19;25.60;96.90
28460;DHT22;32528;45.712;9.192;2023-07-24T10:00:21;25.40;97.00
28460;DHT22;32528;45.712;9.192;2023-07-24T10:02:22;25.20;96.90
28460;DHT22;32528;45.712;9.192;2023-07-24T10:04:23;25.20;97.20
28460;DHT22;32528;45.712;9.192;2023-07-24T10:06:24;25.20;98.00
28460;DHT22;32528;45.712;9.192;2023-07-24T10:08:27;25.20;97.90
28460;DHT22;32528;45.712;9.192;2023-07-24T10:10:29;25.10;97.70
28460;DHT22;32528;45.712;9.192;2023-07-24T10:12:32;25.20;97.40
28460;DHT22;32528;45.712;9.192;2023-07-24T10:14:35;25.40;97.40
28460;DHT22;32528;45.712;9.192;2023-07-24T10:16:36;25.60;97.30
28460;DHT22;32528;45.712;9.192;2023-07-24T10:18:44;25.80;97.20
28460;DHT22;32528;45.712;9.192;2023-07-24T10:20:46;26.00;97.30
28460;DHT22;32528;45.712;9.192;2023-07-24T10:22:46;26.20;97.20
28460;DHT22;32528;45.712;9.192;2023-07-24T10:24:47;26.40;96.90
28460;DHT22;32528;45.712;9.192;2023-07-24T10:26:48;26.60;96.90
28460;DHT22;32528;45.712;9.192;2023-07-24T10:28:49;26.90;96.60
28460;DHT22;32528;45.712;9.192;2023-07-24T10:30:55;26.80;96.50
28460;DHT22;32528;45.712;9.192;2023-07-24T10:33:03;26.60;96.00
28460;DHT22;32528;45.712;9.192;2023-07-24T10:35:07;26.60;96.00
28460;DHT22;32528;45.712;9.192;2023-07-24T10:37:10;26.70;95.40
28460;DHT22;32528;45.712;9.192;2023-07-24T10:39:15;26.70;95.20
28460;DHT22;32528;45.712;9.192;2023-07-24T10:41:15;26.60;94.60
28460;DHT22;32528;45.712;9.192;2023-07-24T10:43:19;26.50;95.70
28460;DHT22;32528;45.712;9.192;2023-07-24T10:45:20;26.50;95.60
28460;DHT22;32528;45.712;9.192;2023-07-24T10:47:21;26.40;95.70
28460;DHT22;32528;45.712;9.192;2023-07-24T10:49:22;26.20;96.10
28460;DHT22;32528;45.712;9.192;2023-07-24T10:51:22;26.10;96.80
28460;DHT22;32528;45.712;9.192;2023-07-24T10:53:23;26.00;96.70
28460;DHT22;32528;45.712;9.192;2023-07-24T10:55:24;25.90;96.80
28460;DHT22;32528;45.712;9.192;2023-07-24T10:57:29;25.70;97.00
28460;DHT22;32528;45.712;9.192;2023-07-24T10:59:36;25.60;96.60
28460;DHT22;32528;45.712;9.192;2023-07-24T11:01:37;25.50;96.80
28460;DHT22;32528;45.712;9.192;2023-07-24T11:03:41;25.50;97.10
28460;DHT22;32528;45.712;9.192;2023-07-24T11:05:43;25.40;97.10
28460;DHT22;32528;45.712;9.192;2023-07-24T11:07:44;25.50;96.90
28460;DHT22;32528;45.712;9.192;2023-07-24T11:09:45;25.60;97.10
28460;DHT22;32528;45.712;9.192;2023-07-24T11:11:45;25.60;97.30
28460;DHT22;32528;45.712;9.192;2023-07-24T11:13:46;25.50;97.20
28460;DHT22;32528;45.712;9.192;2023-07-24T11:15:48;25.30;97.20
28460;DHT22;32528;45.712;9.192;2023-07-24T11:17:48;25.20;97.40
28460;DHT22;32528;45.712;9.192;2023-07-24T11:19:49;25.10;97.50
28460;DHT22;32528;45.712;9.192;2023-07-24T11:21:50;25.00;97.50
28460;DHT22;32528;45.712;9.192;2023-07-24T11:23:53;24.90;97.80
28460;DHT22;32528;45.712;9.192;2023-07-24T11:25:54;24.70;98.00
28460;DHT22;32528;45.712;9.192;2023-07-24T11:27:55;24.70;98.30
28460;DHT22;32528;45.712;9.192;2023-07-24T11:29:55;24.50;98.40
28460;DHT22;32528;45.712;9.192;2023-07-24T11:31:56;24.40;98.40
28460;DHT22;32528;45.712;9.192;2023-07-24T11:33:57;24.30;98.40
28460;DHT22;32528;45.712;9.192;2023-07-24T11:35:58;24.30;98.60
28460;DHT22;32528;45.712;9.192;2023-07-24T11:37:59;24.10;98.70
28460;DHT22;32528;45.712;9.192;2023-07-24T11:40:02;24.00;98.40
28460;DHT22;32528;45.712;9.192;2023-07-24T11:42:09;23.70;98.10
28460;DHT22;32528;45.712;9.192;2023-07-24T11:44:09;23.40;98.10
28460;DHT22;32528;45.712;9.192;2023-07-24T11:46:10;23.30;98.60
28460;DHT22;32528;45.712;9.192;2023-07-24T11:48:12;22.60;99.90
28460;DHT22;32528;45.712;9.192;2023-07-24T11:50:13;22.10;99.90
28460;DHT22;32528;45.712;9.192;2023-07-24T11:52:14;21.60;99.90
28460;DHT22;32528;45.712;9.192;2023-07-24T11:54:15;21.40;99.90
28460;DHT22;32528;45.712;9.192;2023-07-24T11:56:19;21.30;99.90
28460;DHT22;32528;45.712;9.192;2023-07-24T11:58:20;21.20;99.90
28460;DHT22;32528;45.712;9.192;2023-07-24T12:00:22;21.30;99.90
28460;DHT22;32528;45.712;9.192;2023-07-24T12:02:23;21.40;99.90
28460;DHT22;32528;45.712;9.192;2023-07-24T12:04:25;21.40;99.90
28460;DHT22;32528;45.712;9.192;2023-07-24T12:06:31;21.40;99.90
28460;DHT22;32528;45.712;9.192;2023-07-24T12:08:35;21.60;99.90
28460;DHT22;32528;45.712;9.192;2023-07-24T12:10:38;21.70;99.90
28460;DHT22;32528;45.712;9.192;2023-07-24T12:14:42;21.40;99.90
28460;DHT22;32528;45.712;9.192;2023-07-24T12:16:42;21.60;99.90
28460;DHT22;32528;45.712;9.192;2023-07-24T12:18:44;21.80;99.90
28460;DHT22;32528;45.712;9.192;2023-07-24T12:20:44;22.00;99.90
28460;DHT22;32528;45.712;9.192;2023-07-24T12:22:45;22.00;99.90
28460;DHT22;32528;45.712;9.192;2023-07-24T12:24:46;22.30;99.90
28460;DHT22;32528;45.712;9.192;2023-07-24T12:26:47;22.30;99.90
28460;DHT22;32528;45.712;9.192;2023-07-24T12:28:48;22.40;99.90
28460;DHT22;32528;45.712;9.192;2023-07-24T12:30:48;22.20;99.90
28460;DHT22;32528;45.712;9.192;2023-07-24T12:32:49;22.20;99.90
28460;DHT22;32528;45.712;9.192;2023-07-24T12:34:51;22.20;99.90
28460;DHT22;32528;45.712;9.192;2023-07-24T12:36:52;22.10;99.90
28460;DHT22;32528;45.712;9.192;2023-07-24T12:38:54;22.10;99.90
28460;DHT22;32528;45.712;9.192;2023-07-24T12:40:55;22.20;99.90
28460;DHT22;32528;45.712;9.192;2023-07-24T12:42:55;22.30;99.90
28460;DHT22;32528;45.712;9.192;2023-07-24T12:44:56;22.30;99.90
28460;DHT22;32528;45.712;9.192;2023-07-24T12:46:58;22.20;99.90
28460;DHT22;32528;45.712;9.192;2023-07-24T12:48:59;22.20;99.90
28460;DHT22;32528;45.712;9.192;2023-07-24T12:50:59;22.20;99.90
28460;DHT22;32528;45.712;9.192;2023-07-24T12:53:01;22.10;99.90